This is the latest recevied weather packets stored in our database for station/object KD4WXI. If no packets are shown the sender has not sent any weather packets the latest 1 day(s).
| Time | Temp. | Humidity | Pressure | Rain* | Wind** | Luminosity | Snow |
|---|---|---|---|---|---|---|---|
| 1836274622 | 16.11° C | 99% | 1019.1 hPa | 0 mm | 0 m/s | 0 W/m² | - |
| 1836274475 | 15.56° C | 99% | 1018.9 hPa | 0 mm | 0 m/s | 0 W/m² | - |
| 1836274320 | 15.56° C | 99% | 1018.9 hPa | 0 mm | 0 m/s | 0 W/m² | - |
| 1836274173 | 16.11° C | 99% | 1018.9 hPa | 0 mm | 0 m/s | 0 W/m² | - |
| 1836274019 | 16.11° C | 99% | 1018.9 hPa | 0 mm | 0 m/s | 0 W/m² | - |
| 1778035611 | 16.11° C | 66% | 1014.6 hPa | 0 mm | 0 m/s | 0 W/m² | - |
| 1778035308 | 16.11° C | 68% | 1014.5 hPa | 0 mm | 0 m/s | 0 W/m² | - |
| 1778035004 | 16.11° C | 67% | 1014.7 hPa | 0 mm | 0 m/s | 0 W/m² | - |
| 1778034701 | 16.11° C | 68% | 1014.7 hPa | 0 mm | 0 m/s | 0 W/m² | - |
| 1778034398 | 16.11° C | 69% | 1014.8 hPa | 0 mm | 0 m/s | 0 W/m² | - |
| 1778034096 | 16.11° C | 70% | 1014.5 hPa | 0 mm | 0 m/s | 0 W/m² | - |
| 1778033794 | 16.11° C | 71% | 1014.6 hPa | 0 mm | 0 m/s | 0 W/m² | - |
| 1778033491 | 16.11° C | 70% | 1014.7 hPa | 0 mm | 0 m/s | 0 W/m² | - |
| 1778033188 | 15.56° C | 70% | 1014.7 hPa | 0 mm | 0 m/s | 0 W/m² | - |
| 1778032885 | 16.11° C | 69% | 1014.5 hPa | 0 mm | 0 m/s | 0 W/m² | - |
| 1778032583 | 16.11° C | 69% | 1014.5 hPa | 0 mm | 0 m/s | 0 W/m² | - |
| 1778032279 | 16.67° C | 66% | 1014.6 hPa | 0 mm | 0 m/s | 0 W/m² | - |
| 1778031977 | 16.67° C | 64% | 1014.8 hPa | 0 mm | 0 m/s | 0 W/m² | - |
| 1778031672 | 17.22° C | 62% | 1014.6 hPa | 0 mm | 0 m/s | 0 W/m² | - |
| 1778031371 | 17.22° C | 61% | 1014.8 hPa | 0 mm | 0 m/s | 0 W/m² | - |
| 1778031067 | 17.22° C | 60% | 1014.5 hPa | 0 mm | 0 m/s | 0 W/m² | - |
| 1778030763 | 17.78° C | 60% | 1014.6 hPa | 0 mm | 0 m/s | 0 W/m² | - |
| 1778030460 | 17.78° C | 59% | 1014.6 hPa | 0 mm | 0 m/s | 0 W/m² | - |
| 1778030158 | 18.33° C | 59% | 1014.6 hPa | 0 mm | 0 m/s | 0 W/m² | - |
| 1778029854 | 18.89° C | 57% | 1014.7 hPa | 0 mm | 0 m/s | 0 W/m² | - |
* Rain latest hour (hover to see other rain measurements)
** Current wind speed in m/s (hover to see current wind gust speed)